Hanna, Louisiana
Current Conditions -  °F | °C
As of 12:15 PM on Tuesday 21 Oct 2014 (Local Time) from KIER Reporting Station
Clear Clear  
Wind Chill: 76°   Ceiling: Unl
Heat Index: 78°   Visibility: 10mi
Dew Point: 61°   Wind: 0mph
Humidity: 58%   Direction: NA
Pressure: 30.1"   Gusts: NA
Location:  32.1001°N, 93.2912°W
Report Text: KIER 211715Z AUTO 00000KT 10SM CLR 25/16 A3010 RMK AO2 T02470160
Loading
Personal Weather Stations






























Interactive Weather Map
Tropical Storm Tracking
New forecast layout! Learn more

10-Day Weather Forecast

Advertisements
Track Severe Weather on mobile